KSYN/SYN METAR and TAF weather

Enter ICAO airport designator
Station Type Date Time Source
KSYN METAR 2022/01/19 19:55 UTC NOAA

KSYN 191955Z AUTO 31014KT 10SM CLR M13/M20 A3037 RMK AO2 T11351202


Station Type Date Time Source
KSYN Decoded METAR 2022/01/19 19:55 UTC NOAA

Stanton, Stanton Airfield, MN, United States (KSYN) 44-28-31N 093-00-58W
Jan 19, 2022 - 02:55 PM EST / 2022.01.19 1955 UTC
Wind: from the NW (310 degrees) at 16 MPH (14 KT):0
Visibility: 10 mile(s):0
Sky conditions: clear
Temperature: 7.7 F (-13.5 C)
Windchill: -9 F (-23 C):2
Dew Point: -4.4 F (-20.2 C)
Relative Humidity: 57%
Pressure (altimeter): 30.37 in. Hg (1028 hPa)
ob: KSYN 191955Z AUTO 31014KT 10SM CLR M13/M20 A3037 RMK AO2 T11351202
cycle: 20

Station Type Date Time Source
KSYN TAF UTC NOAA

Error!

Example: see airport list